sensor_id;sensor_type;location;lat;lon;timestamp;pressure;altitude;pressure_sealevel;temperature;humidity
32873;BME280;19224;52.462;16.898;2023-07-22T00:01:46;99753.62;;;19.30;97.62
32873;BME280;19224;52.462;16.898;2023-07-22T00:04:20;99755.83;;;19.36;97.58
32873;BME280;19224;52.462;16.898;2023-07-22T00:06:56;99744.98;;;19.40;96.86
32873;BME280;19224;52.462;16.898;2023-07-22T00:09:26;99736.19;;;19.37;97.23
32873;BME280;19224;52.462;16.898;2023-07-22T00:12:02;99732.49;;;19.32;97.86
32873;BME280;19224;52.462;16.898;2023-07-22T00:14:33;99728.15;;;19.35;97.36
32873;BME280;19224;52.462;16.898;2023-07-22T00:17:04;99725.64;;;19.23;97.72
32873;BME280;19224;52.462;16.898;2023-07-22T00:19:35;99736.20;;;19.22;96.76
32873;BME280;19224;52.462;16.898;2023-07-22T00:22:08;99736.32;;;19.20;96.71
32873;BME280;19224;52.462;16.898;2023-07-22T00:24:38;99737.33;;;19.19;96.96
32873;BME280;19224;52.462;16.898;2023-07-22T00:27:08;99735.20;;;19.17;97.98
32873;BME280;19224;52.462;16.898;2023-07-22T00:29:38;99735.97;;;19.14;98.37
32873;BME280;19224;52.462;16.898;2023-07-22T00:32:09;99736.48;;;19.13;98.26
32873;BME280;19224;52.462;16.898;2023-07-22T00:34:40;99736.97;;;19.13;97.46
32873;BME280;19224;52.462;16.898;2023-07-22T00:37:13;99732.64;;;19.10;97.41
32873;BME280;19224;52.462;16.898;2023-07-22T00:39:43;99735.01;;;19.09;98.21
32873;BME280;19224;52.462;16.898;2023-07-22T00:42:19;99736.66;;;19.06;98.38
32873;BME280;19224;52.462;16.898;2023-07-22T00:44:55;99736.25;;;18.96;98.73
32873;BME280;19224;52.462;16.898;2023-07-22T00:47:30;99733.00;;;18.96;99.07
32873;BME280;19224;52.462;16.898;2023-07-22T00:50:05;99742.83;;;18.93;98.79
32873;BME280;19224;52.462;16.898;2023-07-22T00:52:39;99748.33;;;18.88;97.90
32873;BME280;19224;52.462;16.898;2023-07-22T00:55:14;99741.50;;;18.88;97.89
32873;BME280;19224;52.462;16.898;2023-07-22T00:57:44;99735.80;;;18.85;98.39
32873;BME280;19224;52.462;16.898;2023-07-22T01:00:19;99736.56;;;18.82;99.83
32873;BME280;19224;52.462;16.898;2023-07-22T01:02:49;99735.44;;;18.84;100.00
32873;BME280;19224;52.462;16.898;2023-07-22T01:05:30;99744.23;;;18.88;100.00
32873;BME280;19224;52.462;16.898;2023-07-22T01:08:01;99746.36;;;18.84;99.34
32873;BME280;19224;52.462;16.898;2023-07-22T01:10:39;99748.69;;;18.89;98.55
32873;BME280;19224;52.462;16.898;2023-07-22T01:13:11;99742.81;;;18.78;98.17
32873;BME280;19224;52.462;16.898;2023-07-22T01:15:41;99741.91;;;18.83;98.16
32873;BME280;19224;52.462;16.898;2023-07-22T01:18:12;99758.43;;;18.76;99.16
32873;BME280;19224;52.462;16.898;2023-07-22T01:20:45;99748.36;;;18.82;98.85
32873;BME280;19224;52.462;16.898;2023-07-22T01:23:17;99746.91;;;18.78;99.24
32873;BME280;19224;52.462;16.898;2023-07-22T01:25:49;99751.16;;;18.71;99.16
32873;BME280;19224;52.462;16.898;2023-07-22T01:28:22;99745.91;;;18.79;99.42
32873;BME280;19224;52.462;16.898;2023-07-22T01:30:53;99748.03;;;18.76;99.69
32873;BME280;19224;52.462;16.898;2023-07-22T01:33:31;99751.09;;;18.62;100.00
32873;BME280;19224;52.462;16.898;2023-07-22T01:36:07;99748.23;;;18.37;100.00
32873;BME280;19224;52.462;16.898;2023-07-22T01:38:48;99747.38;;;18.31;100.00
32873;BME280;19224;52.462;16.898;2023-07-22T01:41:14;99750.87;;;18.33;100.00
32873;BME280;19224;52.462;16.898;2023-07-22T01:43:45;99747.35;;;18.37;100.00
32873;BME280;19224;52.462;16.898;2023-07-22T01:46:20;99754.95;;;18.33;100.00
32873;BME280;19224;52.462;16.898;2023-07-22T01:48:50;99744.16;;;18.26;100.00
32873;BME280;19224;52.462;16.898;2023-07-22T01:51:21;99760.85;;;18.01;100.00
32873;BME280;19224;52.462;16.898;2023-07-22T01:53:52;99761.11;;;17.87;100.00
32873;BME280;19224;52.462;16.898;2023-07-22T01:56:28;99760.53;;;17.78;100.00
32873;BME280;19224;52.462;16.898;2023-07-22T01:58:58;99761.40;;;17.68;100.00
32873;BME280;19224;52.462;16.898;2023-07-22T02:01:44;99760.20;;;17.55;100.00
32873;BME280;19224;52.462;16.898;2023-07-22T02:04:00;99759.31;;;17.60;100.00
32873;BME280;19224;52.462;16.898;2023-07-22T02:06:33;99760.56;;;17.56;100.00
32873;BME280;19224;52.462;16.898;2023-07-22T02:09:04;99755.85;;;17.58;100.00
32873;BME280;19224;52.462;16.898;2023-07-22T02:11:38;99755.96;;;17.62;100.00
32873;BME280;19224;52.462;16.898;2023-07-22T02:14:09;99759.06;;;17.52;100.00
32873;BME280;19224;52.462;16.898;2023-07-22T02:16:42;99757.59;;;17.43;100.00
32873;BME280;19224;52.462;16.898;2023-07-22T02:19:14;99752.85;;;17.34;100.00
32873;BME280;19224;52.462;16.898;2023-07-22T02:21:45;99750.79;;;17.37;100.00
32873;BME280;19224;52.462;16.898;2023-07-22T02:24:18;99751.05;;;17.40;100.00
32873;BME280;19224;52.462;16.898;2023-07-22T02:26:53;99755.50;;;17.35;100.00
32873;BME280;19224;52.462;16.898;2023-07-22T02:29:24;99749.77;;;17.27;100.00
32873;BME280;19224;52.462;16.898;2023-07-22T02:31:54;99751.23;;;17.20;100.00
32873;BME280;19224;52.462;16.898;2023-07-22T02:34:24;99755.45;;;17.13;100.00
32873;BME280;19224;52.462;16.898;2023-07-22T02:36:54;99759.03;;;17.25;100.00
32873;BME280;19224;52.462;16.898;2023-07-22T02:39:36;99760.28;;;17.26;100.00
32873;BME280;19224;52.462;16.898;2023-07-22T02:42:02;99760.28;;;17.21;100.00
32873;BME280;19224;52.462;16.898;2023-07-22T02:44:38;99767.57;;;17.31;100.00
32873;BME280;19224;52.462;16.898;2023-07-22T02:47:10;99765.36;;;17.14;100.00
32873;BME280;19224;52.462;16.898;2023-07-22T02:49:40;99769.28;;;17.10;100.00
32873;BME280;19224;52.462;16.898;2023-07-22T02:52:10;99762.89;;;17.11;100.00
32873;BME280;19224;52.462;16.898;2023-07-22T02:54:41;99762.26;;;17.08;100.00
32873;BME280;19224;52.462;16.898;2023-07-22T02:57:20;99762.89;;;17.11;100.00
32873;BME280;19224;52.462;16.898;2023-07-22T02:59:46;99756.67;;;17.15;100.00
32873;BME280;19224;52.462;16.898;2023-07-22T03:02:26;99761.02;;;17.17;100.00
32873;BME280;19224;52.462;16.898;2023-07-22T03:04:56;99756.31;;;17.14;100.00
32873;BME280;19224;52.462;16.898;2023-07-22T03:07:28;99758.41;;;17.21;100.00
32873;BME280;19224;52.462;16.898;2023-07-22T03:09:58;99765.10;;;17.23;100.00
32873;BME280;19224;52.462;16.898;2023-07-22T03:12:29;99764.84;;;17.20;100.00
32873;BME280;19224;52.462;16.898;2023-07-22T03:15:00;99764.73;;;17.27;100.00
32873;BME280;19224;52.462;16.898;2023-07-22T03:17:32;99775.14;;;17.28;100.00
32873;BME280;19224;52.462;16.898;2023-07-22T03:20:10;99766.98;;;17.28;100.00
32873;BME280;19224;52.462;16.898;2023-07-22T03:22:44;99779.45;;;17.19;100.00
32873;BME280;19224;52.462;16.898;2023-07-22T03:25:16;99784.05;;;17.24;100.00
32873;BME280;19224;52.462;16.898;2023-07-22T03:27:47;99782.42;;;17.16;100.00
32873;BME280;19224;52.462;16.898;2023-07-22T03:30:20;99779.81;;;17.15;100.00
32873;BME280;19224;52.462;16.898;2023-07-22T03:32:50;99781.42;;;17.12;100.00
32873;BME280;19224;52.462;16.898;2023-07-22T03:35:22;99783.16;;;17.13;100.00
32873;BME280;19224;52.462;16.898;2023-07-22T03:37:54;99779.70;;;17.22;100.00
32873;BME280;19224;52.462;16.898;2023-07-22T03:40:25;99784.04;;;17.19;100.00
32873;BME280;19224;52.462;16.898;2023-07-22T03:43:00;99779.22;;;17.11;100.00
32873;BME280;19224;52.462;16.898;2023-07-22T03:45:31;99784.14;;;17.06;100.00
32873;BME280;19224;52.462;16.898;2023-07-22T03:48:04;99785.01;;;17.01;100.00
32873;BME280;19224;52.462;16.898;2023-07-22T03:50:35;99786.85;;;17.01;100.00
32873;BME280;19224;52.462;16.898;2023-07-22T03:53:05;99790.67;;;16.98;100.00
32873;BME280;19224;52.462;16.898;2023-07-22T03:55:35;99787.72;;;16.96;100.00
32873;BME280;19224;52.462;16.898;2023-07-22T03:58:06;99787.59;;;17.03;100.00
32873;BME280;19224;52.462;16.898;2023-07-22T04:00:37;99787.85;;;17.05;100.00
32873;BME280;19224;52.462;16.898;2023-07-22T04:03:08;99788.84;;;17.04;100.00
32873;BME280;19224;52.462;16.898;2023-07-22T04:05:38;99795.64;;;17.04;100.00
32873;BME280;19224;52.462;16.898;2023-07-22T04:08:16;99791.07;;;16.99;100.00
32873;BME280;19224;52.462;16.898;2023-07-22T04:10:55;99785.61;;;17.05;100.00
32873;BME280;19224;52.462;16.898;2023-07-22T04:13:27;99792.29;;;17.01;100.00
32873;BME280;19224;52.462;16.898;2023-07-22T04:15:59;99792.16;;;16.92;100.00
32873;BME280;19224;52.462;16.898;2023-07-22T04:18:31;99788.35;;;16.99;100.00
32873;BME280;19224;52.462;16.898;2023-07-22T04:21:07;99787.72;;;16.96;100.00
32873;BME280;19224;52.462;16.898;2023-07-22T04:23:37;99783.28;;;17.00;100.00
32873;BME280;19224;52.462;16.898;2023-07-22T04:26:14;99795.63;;;16.99;100.00
32873;BME280;19224;52.462;16.898;2023-07-22T04:28:44;99789.11;;;17.12;100.00
32873;BME280;19224;52.462;16.898;2023-07-22T04:31:14;99792.05;;;17.09;100.00
32873;BME280;19224;52.462;16.898;2023-07-22T04:33:45;99791.33;;;17.29;100.00
32873;BME280;19224;52.462;16.898;2023-07-22T04:36:17;99793.20;;;17.29;100.00
32873;BME280;19224;52.462;16.898;2023-07-22T04:38:47;99793.80;;;17.32;100.00
32873;BME280;19224;52.462;16.898;2023-07-22T04:41:17;99791.08;;;17.32;100.00
32873;BME280;19224;52.462;16.898;2023-07-22T04:43:52;99792.95;;;17.32;100.00
32873;BME280;19224;52.462;16.898;2023-07-22T04:46:22;99798.51;;;17.30;100.00
32873;BME280;19224;52.462;16.898;2023-07-22T04:48:55;99796.70;;;17.47;100.00
32873;BME280;19224;52.462;16.898;2023-07-22T04:51:28;99801.05;;;17.44;100.00
32873;BME280;19224;52.462;16.898;2023-07-22T04:53:58;99793.36;;;17.55;100.00
32873;BME280;19224;52.462;16.898;2023-07-22T04:56:30;99803.00;;;17.59;100.00
32873;BME280;19224;52.462;16.898;2023-07-22T04:59:01;99800.05;;;17.56;100.00
32873;BME280;19224;52.462;16.898;2023-07-22T05:01:34;99801.05;;;17.66;100.00
32873;BME280;19224;52.462;16.898;2023-07-22T05:04:07;99802.40;;;17.72;100.00
32873;BME280;19224;52.462;16.898;2023-07-22T05:06:38;99807.44;;;17.76;100.00
32873;BME280;19224;52.462;16.898;2023-07-22T05:09:08;99805.70;;;17.86;100.00
32873;BME280;19224;52.462;16.898;2023-07-22T05:11:43;99797.67;;;17.90;100.00
32873;BME280;19224;52.462;16.898;2023-07-22T05:14:13;99804.70;;;17.87;100.00
32873;BME280;19224;52.462;16.898;2023-07-22T05:16:43;99805.21;;;17.92;100.00
32873;BME280;19224;52.462;16.898;2023-07-22T05:19:15;99809.29;;;17.98;100.00
32873;BME280;19224;52.462;16.898;2023-07-22T05:21:47;99809.12;;;18.10;100.00
32873;BME280;19224;52.462;16.898;2023-07-22T05:24:20;99813.45;;;18.13;100.00
32873;BME280;19224;52.462;16.898;2023-07-22T05:26:52;99816.30;;;18.22;100.00
32873;BME280;19224;52.462;16.898;2023-07-22T05:29:23;99815.91;;;18.32;100.00
32873;BME280;19224;52.462;16.898;2023-07-22T05:31:55;99821.86;;;18.26;100.00
32873;BME280;19224;52.462;16.898;2023-07-22T05:34:33;99809.36;;;18.18;100.00
32873;BME280;19224;52.462;16.898;2023-07-22T05:37:05;99816.89;;;18.26;100.00
32873;BME280;19224;52.462;16.898;2023-07-22T05:39:37;99812.78;;;18.42;100.00
32873;BME280;19224;52.462;16.898;2023-07-22T05:42:08;99817.91;;;18.30;100.00
32873;BME280;19224;52.462;16.898;2023-07-22T05:44:38;99816.30;;;18.22;100.00
32873;BME280;19224;52.462;16.898;2023-07-22T05:47:10;99822.70;;;18.27;100.00
32873;BME280;19224;52.462;16.898;2023-07-22T05:49:42;99828.17;;;18.32;100.00
32873;BME280;19224;52.462;16.898;2023-07-22T05:52:19;99828.81;;;18.30;100.00
32873;BME280;19224;52.462;16.898;2023-07-22T05:54:50;99836.24;;;18.34;100.00
32873;BME280;19224;52.462;16.898;2023-07-22T05:57:20;99840.31;;;18.39;100.00
32873;BME280;19224;52.462;16.898;2023-07-22T05:59:50;99837.97;;;18.24;100.00
32873;BME280;19224;52.462;16.898;2023-07-22T06:02:25;99831.80;;;18.16;100.00
32873;BME280;19224;52.462;16.898;2023-07-22T06:04:55;99834.42;;;18.12;100.00
32873;BME280;19224;52.462;16.898;2023-07-22T06:07:26;99836.59;;;18.40;100.00
32873;BME280;19224;52.462;16.898;2023-07-22T06:09:56;99843.73;;;18.52;100.00
32873;BME280;19224;52.462;16.898;2023-07-22T06:12:26;99841.02;;;18.52;100.00
32873;BME280;19224;52.462;16.898;2023-07-22T06:14:59;99855.41;;;18.49;100.00
32873;BME280;19224;52.462;16.898;2023-07-22T06:17:36;99851.42;;;18.84;100.00
32873;BME280;19224;52.462;16.898;2023-07-22T06:20:13;99844.48;;;19.06;100.00
32873;BME280;19224;52.462;16.898;2023-07-22T06:22:41;99861.61;;;18.82;100.00
32873;BME280;19224;52.462;16.898;2023-07-22T06:25:20;99857.61;;;18.86;100.00
32873;BME280;19224;52.462;16.898;2023-07-22T06:27:51;99865.92;;;18.90;100.00
32873;BME280;19224;52.462;16.898;2023-07-22T06:30:24;99867.33;;;19.05;100.00
32873;BME280;19224;52.462;16.898;2023-07-22T06:32:59;99863.29;;;18.94;100.00
32873;BME280;19224;52.462;16.898;2023-07-22T06:35:33;99869.89;;;18.86;100.00
32873;BME280;19224;52.462;16.898;2023-07-22T06:38:04;99860.20;;;18.93;100.00
32873;BME280;19224;52.462;16.898;2023-07-22T06:40:38;99871.52;;;19.09;100.00
32873;BME280;19224;52.462;16.898;2023-07-22T06:43:08;99863.75;;;18.99;100.00
32873;BME280;19224;52.462;16.898;2023-07-22T06:45:43;99863.99;;;19.02;99.87
32873;BME280;19224;52.462;16.898;2023-07-22T06:48:13;99866.16;;;19.39;97.88
32873;BME280;19224;52.462;16.898;2023-07-22T06:50:51;99875.29;;;19.49;97.87
32873;BME280;19224;52.462;16.898;2023-07-22T06:53:21;99877.86;;;19.56;96.79
32873;BME280;19224;52.462;16.898;2023-07-22T06:55:53;99875.57;;;19.61;95.95
32873;BME280;19224;52.462;16.898;2023-07-22T06:58:27;99877.45;;;19.75;95.83
32873;BME280;19224;52.462;16.898;2023-07-22T07:00:59;99881.47;;;19.86;95.74
32873;BME280;19224;52.462;16.898;2023-07-22T07:03:38;99892.48;;;20.11;94.50
32873;BME280;19224;52.462;16.898;2023-07-22T07:06:08;99879.94;;;20.08;93.25
32873;BME280;19224;52.462;16.898;2023-07-22T07:08:40;99888.58;;;20.13;93.40
32873;BME280;19224;52.462;16.898;2023-07-22T07:11:15;99886.83;;;20.03;93.82
32873;BME280;19224;52.462;16.898;2023-07-22T07:13:49;99905.62;;;19.96;93.61
32873;BME280;19224;52.462;16.898;2023-07-22T07:16:25;99900.99;;;19.97;93.05
32873;BME280;19224;52.462;16.898;2023-07-22T07:18:57;99888.73;;;19.91;94.23
32873;BME280;19224;52.462;16.898;2023-07-22T07:21:30;99902.30;;;20.08;93.36
32873;BME280;19224;52.462;16.898;2023-07-22T07:24:00;99903.27;;;19.77;95.00
32873;BME280;19224;52.462;16.898;2023-07-22T07:26:38;99912.91;;;19.86;94.00
32873;BME280;19224;52.462;16.898;2023-07-22T07:29:08;99910.20;;;19.46;95.54
32873;BME280;19224;52.462;16.898;2023-07-22T07:31:39;99907.27;;;19.58;94.73
32873;BME280;19224;52.462;16.898;2023-07-22T07:34:13;99908.52;;;19.74;94.00
32873;BME280;19224;52.462;16.898;2023-07-22T07:36:43;99915.60;;;19.71;92.49
32873;BME280;19224;52.462;16.898;2023-07-22T07:39:14;99909.01;;;19.74;92.58
32873;BME280;19224;52.462;16.898;2023-07-22T07:41:44;99909.56;;;19.83;92.11
32873;BME280;19224;52.462;16.898;2023-07-22T07:44:17;99917.77;;;19.68;92.72
32873;BME280;19224;52.462;16.898;2023-07-22T07:46:48;99919.38;;;19.65;92.97
32873;BME280;19224;52.462;16.898;2023-07-22T07:49:20;99920.94;;;19.58;92.15
32873;BME280;19224;52.462;16.898;2023-07-22T07:51:52;99921.44;;;19.37;92.47
32873;BME280;19224;52.462;16.898;2023-07-22T07:54:23;99929.13;;;19.58;91.80
32873;BME280;19224;52.462;16.898;2023-07-22T07:56:53;99924.48;;;19.64;90.90
32873;BME280;19224;52.462;16.898;2023-07-22T07:59:27;99936.09;;;19.71;91.27
32873;BME280;19224;52.462;16.898;2023-07-22T08:02:00;99925.16;;;19.92;88.20
32873;BME280;19224;52.462;16.898;2023-07-22T08:04:35;99933.66;;;20.19;86.76
32873;BME280;19224;52.462;16.898;2023-07-22T08:07:06;99935.06;;;20.13;87.00
32873;BME280;19224;52.462;16.898;2023-07-22T08:09:37;99945.69;;;20.07;86.77
32873;BME280;19224;52.462;16.898;2023-07-22T08:12:13;99949.38;;;20.41;85.65
32873;BME280;19224;52.462;16.898;2023-07-22T08:14:47;99940.11;;;20.48;85.13
32873;BME280;19224;52.462;16.898;2023-07-22T08:17:21;99940.00;;;20.59;84.38
32873;BME280;19224;52.462;16.898;2023-07-22T08:19:53;99963.28;;;20.29;82.64
32873;BME280;19224;52.462;16.898;2023-07-22T08:22:24;99952.59;;;20.41;82.28
32873;BME280;19224;52.462;16.898;2023-07-22T08:24:55;99952.12;;;20.90;79.80
32873;BME280;19224;52.462;16.898;2023-07-22T08:27:27;99950.26;;;20.91;79.37
32873;BME280;19224;52.462;16.898;2023-07-22T08:29:57;99949.80;;;20.86;80.10
32873;BME280;19224;52.462;16.898;2023-07-22T08:32:28;99961.38;;;21.18;78.55
32873;BME280;19224;52.462;16.898;2023-07-22T08:35:04;99962.36;;;20.98;79.30
32873;BME280;19224;52.462;16.898;2023-07-22T08:37:32;99979.73;;;20.93;78.66
32873;BME280;19224;52.462;16.898;2023-07-22T08:40:07;99976.61;;;20.77;79.42
32873;BME280;19224;52.462;16.898;2023-07-22T08:42:39;99969.16;;;20.64;79.76
32873;BME280;19224;52.462;16.898;2023-07-22T08:45:11;99966.83;;;20.99;78.82
32873;BME280;19224;52.462;16.898;2023-07-22T08:47:48;99981.88;;;20.99;76.89
32873;BME280;19224;52.462;16.898;2023-07-22T08:50:23;99987.69;;;21.15;74.93
32873;BME280;19224;52.462;16.898;2023-07-22T08:52:55;99979.31;;;21.07;74.60
32873;BME280;19224;52.462;16.898;2023-07-22T08:55:26;99987.83;;;21.13;74.29
32873;BME280;19224;52.462;16.898;2023-07-22T08:57:57;99987.84;;;21.32;74.76
32873;BME280;19224;52.462;16.898;2023-07-22T09:00:30;99987.48;;;21.41;75.24
32873;BME280;19224;52.462;16.898;2023-07-22T09:03:02;99991.28;;;21.15;73.66
32873;BME280;19224;52.462;16.898;2023-07-22T09:05:36;99998.06;;;21.02;71.66
32873;BME280;19224;52.462;16.898;2023-07-22T09:08:08;99994.41;;;21.35;69.97
32873;BME280;19224;52.462;16.898;2023-07-22T09:10:39;99989.38;;;21.40;71.61
32873;BME280;19224;52.462;16.898;2023-07-22T09:13:15;99994.08;;;21.72;67.80
32873;BME280;19224;52.462;16.898;2023-07-22T09:15:48;99985.84;;;21.82;65.40
32873;BME280;19224;52.462;16.898;2023-07-22T09:18:20;99982.52;;;21.78;66.74
32873;BME280;19224;52.462;16.898;2023-07-22T09:20:54;99990.88;;;21.86;66.57
32873;BME280;19224;52.462;16.898;2023-07-22T09:23:35;99992.14;;;22.11;67.24
32873;BME280;19224;52.462;16.898;2023-07-22T09:26:17;99993.59;;;22.05;65.74
32873;BME280;19224;52.462;16.898;2023-07-22T09:28:55;99996.95;;;21.61;67.51
32873;BME280;19224;52.462;16.898;2023-07-22T09:31:27;99988.93;;;21.83;67.29
32873;BME280;19224;52.462;16.898;2023-07-22T09:34:10;99997.70;;;21.96;65.89
32873;BME280;19224;52.462;16.898;2023-07-22T09:36:55;99995.08;;;21.81;66.28
32873;BME280;19224;52.462;16.898;2023-07-22T09:39:27;99999.88;;;21.92;65.29
32873;BME280;19224;52.462;16.898;2023-07-22T09:41:57;100001.27;;;21.45;63.79
32873;BME280;19224;52.462;16.898;2023-07-22T09:44:31;99999.09;;;21.39;65.18
32873;BME280;19224;52.462;16.898;2023-07-22T09:47:10;100004.80;;;21.51;62.19
32873;BME280;19224;52.462;16.898;2023-07-22T09:49:45;100006.45;;;21.29;64.49
32873;BME280;19224;52.462;16.898;2023-07-22T09:52:18;100010.69;;;21.18;64.99
32873;BME280;19224;52.462;16.898;2023-07-22T09:54:50;100018.57;;;21.45;60.57
32873;BME280;19224;52.462;16.898;2023-07-22T09:57:22;100006.80;;;21.58;59.22
32873;BME280;19224;52.462;16.898;2023-07-22T09:59:54;100008.35;;;21.85;59.65
32873;BME280;19224;52.462;16.898;2023-07-22T10:02:26;100050.84;;;21.76;57.84
32873;BME280;19224;52.462;16.898;2023-07-22T10:05:00;100026.43;;;21.44;58.62
32873;BME280;19224;52.462;16.898;2023-07-22T10:07:34;100017.71;;;21.54;59.55
32873;BME280;19224;52.462;16.898;2023-07-22T10:10:08;100010.73;;;21.75;59.39
32873;BME280;19224;52.462;16.898;2023-07-22T10:12:41;100003.91;;;21.98;58.78
32873;BME280;19224;52.462;16.898;2023-07-22T10:15:17;100005.95;;;22.18;58.06
32873;BME280;19224;52.462;16.898;2023-07-22T10:17:47;99997.93;;;22.67;56.13
32873;BME280;19224;52.462;16.898;2023-07-22T10:20:20;100011.69;;;22.44;55.11
32873;BME280;19224;52.462;16.898;2023-07-22T10:22:52;99992.59;;;22.52;53.89
32873;BME280;19224;52.462;16.898;2023-07-22T10:25:23;99998.00;;;22.48;53.39
32873;BME280;19224;52.462;16.898;2023-07-22T10:27:55;100027.15;;;22.35;54.92
32873;BME280;19224;52.462;16.898;2023-07-22T10:30:25;100026.76;;;21.89;55.54
32873;BME280;19224;52.462;16.898;2023-07-22T10:32:56;100028.13;;;21.89;55.04
32873;BME280;19224;52.462;16.898;2023-07-22T10:35:40;100019.43;;;21.93;55.46
32873;BME280;19224;52.462;16.898;2023-07-22T10:38:15;100014.53;;;22.29;54.60
32873;BME280;19224;52.462;16.898;2023-07-22T10:40:54;100025.88;;;22.20;53.13
32873;BME280;19224;52.462;16.898;2023-07-22T10:43:33;100023.87;;;22.22;52.86
32873;BME280;19224;52.462;16.898;2023-07-22T10:46:12;100026.22;;;22.40;52.54
32873;BME280;19224;52.462;16.898;2023-07-22T10:48:51;100021.66;;;22.35;52.95
32873;BME280;19224;52.462;16.898;2023-07-22T10:51:26;100021.66;;;22.35;50.77
32873;BME280;19224;52.462;16.898;2023-07-22T10:54:10;100035.86;;;22.12;51.53
32873;BME280;19224;52.462;16.898;2023-07-22T10:56:35;100023.78;;;22.18;52.51
32873;BME280;19224;52.462;16.898;2023-07-22T10:59:06;100027.05;;;22.50;51.80
32873;BME280;19224;52.462;16.898;2023-07-22T11:01:39;100035.23;;;22.46;51.85
32873;BME280;19224;52.462;16.898;2023-07-22T11:04:26;100028.96;;;22.40;51.37
32873;BME280;19224;52.462;16.898;2023-07-22T11:07:07;100033.47;;;22.22;49.85
32873;BME280;19224;52.462;16.898;2023-07-22T11:09:43;100032.11;;;22.22;49.34
32873;BME280;19224;52.462;16.898;2023-07-22T11:12:24;100020.11;;;22.69;48.67
32873;BME280;19224;52.462;16.898;2023-07-22T11:15:01;100018.89;;;22.81;48.03
32873;BME280;19224;52.462;16.898;2023-07-22T11:17:34;100012.74;;;23.41;47.19
32873;BME280;19224;52.462;16.898;2023-07-22T11:20:13;100012.34;;;23.85;46.20
32873;BME280;19224;52.462;16.898;2023-07-22T11:22:42;100007.71;;;23.54;45.42
32873;BME280;19224;52.462;16.898;2023-07-22T11:25:20;100001.92;;;23.57;43.60
32873;BME280;19224;52.462;16.898;2023-07-22T11:27:56;100014.08;;;23.37;43.27
32873;BME280;19224;52.462;16.898;2023-07-22T11:30:25;100045.33;;;23.09;43.47
32873;BME280;19224;52.462;16.898;2023-07-22T11:32:58;100020.06;;;22.92;43.71
32873;BME280;19224;52.462;16.898;2023-07-22T11:35:39;100030.10;;;23.24;43.74
32873;BME280;19224;52.462;16.898;2023-07-22T11:38:05;100023.12;;;23.30;43.83
32873;BME280;19224;52.462;16.898;2023-07-22T11:40:35;100032.11;;;23.53;43.29
32873;BME280;19224;52.462;16.898;2023-07-22T11:43:06;100029.94;;;23.43;43.59
32873;BME280;19224;52.462;16.898;2023-07-22T11:45:38;100044.55;;;23.57;44.11
32873;BME280;19224;52.462;16.898;2023-07-22T11:48:12;100018.20;;;23.37;44.02
32873;BME280;19224;52.462;16.898;2023-07-22T11:50:44;100035.38;;;23.35;43.93
32873;BME280;19224;52.462;16.898;2023-07-22T11:53:14;100021.34;;;23.42;43.26
32873;BME280;19224;52.462;16.898;2023-07-22T11:55:46;100011.43;;;23.14;44.56
32873;BME280;19224;52.462;16.898;2023-07-22T11:58:26;100008.70;;;23.49;44.10
32873;BME280;19224;52.462;16.898;2023-07-22T12:01:10;100010.73;;;23.61;43.89
32873;BME280;19224;52.462;16.898;2023-07-22T12:03:41;100010.34;;;23.60;41.19
32873;BME280;19224;52.462;16.898;2023-07-22T12:06:14;100010.73;;;23.82;41.73
32873;BME280;19224;52.462;16.898;2023-07-22T12:08:51;100003.48;;;23.77;42.37
32873;BME280;19224;52.462;16.898;2023-07-22T12:11:32;100015.34;;;23.95;42.03
32873;BME280;19224;52.462;16.898;2023-07-22T12:14:10;100011.04;;;24.18;41.72
32873;BME280;19224;52.462;16.898;2023-07-22T12:16:42;100017.95;;;23.83;41.71
32873;BME280;19224;52.462;16.898;2023-07-22T12:19:12;100010.16;;;23.92;42.44
32873;BME280;19224;52.462;16.898;2023-07-22T12:21:42;100022.47;;;24.27;41.58
32873;BME280;19224;52.462;16.898;2023-07-22T12:24:14;100018.34;;;24.27;40.68
32873;BME280;19224;52.462;16.898;2023-07-22T12:26:46;100003.80;;;24.13;41.45
32873;BME280;19224;52.462;16.898;2023-07-22T12:29:22;100014.84;;;24.21;40.40
32873;BME280;19224;52.462;16.898;2023-07-22T12:31:49;100013.02;;;24.04;41.27
32873;BME280;19224;52.462;16.898;2023-07-22T12:34:22;100002.38;;;23.88;41.10
32873;BME280;19224;52.462;16.898;2023-07-22T12:36:54;100024.34;;;24.27;40.30
32873;BME280;19224;52.462;16.898;2023-07-22T12:39:26;100007.52;;;24.08;40.69
32873;BME280;19224;52.462;16.898;2023-07-22T12:41:58;100025.13;;;24.15;39.44
32873;BME280;19224;52.462;16.898;2023-07-22T12:44:31;100011.09;;;24.22;38.78
32873;BME280;19224;52.462;16.898;2023-07-22T12:47:07;100035.59;;;24.12;38.97
32873;BME280;19224;52.462;16.898;2023-07-22T12:49:42;100020.11;;;23.72;40.37
32873;BME280;19224;52.462;16.898;2023-07-22T12:52:13;100002.98;;;23.99;40.21
32873;BME280;19224;52.462;16.898;2023-07-22T12:54:48;100010.55;;;24.19;40.32
32873;BME280;19224;52.462;16.898;2023-07-22T12:57:20;100010.42;;;24.28;40.15
32873;BME280;19224;52.462;16.898;2023-07-22T12:59:56;100023.28;;;24.45;39.44
32873;BME280;19224;52.462;16.898;2023-07-22T13:02:22;100023.37;;;24.36;38.39
32873;BME280;19224;52.462;16.898;2023-07-22T13:04:57;100022.64;;;24.04;38.67
32873;BME280;19224;52.462;16.898;2023-07-22T13:07:29;100027.05;;;23.97;39.00
32873;BME280;19224;52.462;16.898;2023-07-22T13:10:00;100014.97;;;24.16;39.03
32873;BME280;19224;52.462;16.898;2023-07-22T13:12:39;100015.56;;;24.23;39.12